Time;durP1;ratioP1;P1;durP2;ratioP2;P2;SDS_P1;SDS_P2;PMS_P1;PMS_P2;Temp;Humidity;BMP_temperature;BMP_pressure;BME280_temperature;BME280_humidity;BME280_pressure;Samples;Min_cycle;Max_cycle;Signal;HPM_P1;HPM_P2
2022/08/05 00:00:39;;;;;;;0.30;0.30;;;26.40;65.20;;;;;;4187883;28;20067;-62
2022/08/05 00:03:07;;;;;;;0.00;0.00;;;26.40;65.10;;;;;;4193171;28;20106;-61
2022/08/05 00:05:31;;;;;;;5.68;1.70;;;26.40;65.10;;;;;;4161883;28;20405;-61
2022/08/05 00:08:13;;;;;;;0.00;0.00;;;26.30;65.10;;;;;;4176633;28;20147;-61
2022/08/05 00:10:41;;;;;;;0.52;0.52;;;26.30;64.80;;;;;;4187255;28;20062;-61
2022/08/05 00:13:03;;;;;;;0.00;0.00;;;26.30;64.60;;;;;;4178131;28;20045;-61
2022/08/05 00:15:25;;;;;;;0.10;0.10;;;26.30;64.80;;;;;;4177663;28;20499;-62
2022/08/05 00:18:07;;;;;;;0.00;0.00;;;26.30;65.00;;;;;;4177991;28;20041;-61
2022/08/05 00:20:31;;;;;;;0.10;0.10;;;26.30;64.70;;;;;;4185812;28;20125;-62
2022/08/05 00:22:53;;;;;;;0.38;0.35;;;26.30;64.90;;;;;;4178045;28;20439;-61
2022/08/05 00:25:17;;;;;;;0.00;0.00;;;26.20;64.80;;;;;;4176492;28;20045;-61
2022/08/05 00:27:39;;;;;;;0.00;0.00;;;26.20;64.90;;;;;;4161588;28;20041;-61
2022/08/05 00:30:01;;;;;;;0.45;0.45;;;26.20;64.50;;;;;;4173935;28;20195;-61
2022/08/05 00:32:24;;;;;;;0.00;0.00;;;26.20;64.80;;;;;;4177986;28;20098;-60
2022/08/05 00:34:46;;;;;;;0.00;0.00;;;26.20;64.90;;;;;;4191020;28;20117;-60
2022/08/05 00:37:19;;;;;;;0.00;0.00;;;26.20;64.90;;;;;;4178279;28;20146;-60
2022/08/05 00:39:42;;;;;;;0.30;0.28;;;26.20;65.70;;;;;;4192902;28;20049;-60
2022/08/05 00:42:05;;;;;;;0.00;0.00;;;26.10;65.40;;;;;;4177119;28;20423;-61
2022/08/05 00:44:27;;;;;;;0.00;0.00;;;26.10;65.00;;;;;;4181404;28;20132;-60
2022/08/05 00:46:52;;;;;;;0.00;0.00;;;26.10;65.10;;;;;;4182328;28;20067;-61
2022/08/05 00:49:18;;;;;;;0.00;0.00;;;26.10;65.00;;;;;;4194552;28;20858;-61
2022/08/05 00:51:39;;;;;;;0.00;0.00;;;26.10;65.20;;;;;;4193970;28;20403;-61
2022/08/05 00:54:14;;;;;;;0.25;0.20;;;26.10;65.20;;;;;;4182391;28;20056;-61
2022/08/05 00:56:36;;;;;;;0.00;0.00;;;26.10;65.10;;;;;;4177120;28;20067;-61
2022/08/05 00:58:57;;;;;;;0.00;0.00;;;26.10;65.40;;;;;;4178614;28;20041;-63
2022/08/05 01:01:20;;;;;;;0.00;0.00;;;26.00;65.40;;;;;;4177793;28;20124;-62
2022/08/05 01:03:45;;;;;;;0.00;0.00;;;26.00;65.40;;;;;;4177013;28;20132;-62
2022/08/05 01:06:11;;;;;;;0.00;0.00;;;26.00;65.40;;;;;;4160729;28;20484;-62
2022/08/05 01:08:35;;;;;;;0.00;0.00;;;26.00;65.50;;;;;;4176932;28;20045;-62
2022/08/05 01:11:12;;;;;;;0.00;0.00;;;26.00;65.50;;;;;;4177316;28;20041;-62
2022/08/05 01:13:44;;;;;;;2.28;0.98;;;26.00;65.50;;;;;;4178508;28;20167;-62
2022/08/05 01:16:30;;;;;;;0.20;0.20;;;26.00;66.40;;;;;;4178610;28;20037;-60
2022/08/05 01:18:54;;;;;;;0.00;0.00;;;26.00;65.60;;;;;;4164909;28;20607;-60
2022/08/05 01:21:31;;;;;;;0.00;0.00;;;26.00;65.60;;;;;;4177639;28;20052;-60
2022/08/05 01:24:13;;;;;;;0.00;0.00;;;26.00;65.60;;;;;;4182150;28;20613;-60
2022/08/05 01:26:52;;;;;;;0.28;0.28;;;26.00;65.70;;;;;;4192910;28;20087;-60
2022/08/05 01:29:20;;;;;;;0.00;0.00;;;26.10;65.70;;;;;;4193491;28;20506;-60
2022/08/05 01:31:47;;;;;;;0.00;0.00;;;26.00;65.70;;;;;;4192980;28;20574;-60
2022/08/05 01:34:12;;;;;;;0.00;0.00;;;26.00;65.70;;;;;;4192818;28;20922;-62
2022/08/05 01:36:40;;;;;;;0.00;0.00;;;26.10;65.80;;;;;;4176595;28;20162;-60
2022/08/05 01:39:04;;;;;;;0.00;0.00;;;26.10;65.80;;;;;;4176211;28;20152;-60
2022/08/05 01:41:30;;;;;;;0.80;0.70;;;26.00;65.80;;;;;;4178149;28;20595;-60
2022/08/05 01:43:54;;;;;;;0.00;0.00;;;26.10;65.90;;;;;;4175989;28;20052;-69
2022/08/05 01:46:20;;;;;;;0.00;0.00;;;26.10;66.70;;;;;;4177591;28;20126;-68
2022/08/05 01:49:04;;;;;;;0.00;0.00;;;26.10;65.90;;;;;;4191797;28;20549;-68
2022/08/05 01:51:36;;;;;;;0.00;0.00;;;26.10;65.90;;;;;;4174981;28;20566;-68
2022/08/05 01:53:59;;;;;;;0.00;0.00;;;26.10;65.90;;;;;;4179832;28;20107;-68
2022/08/05 01:56:26;;;;;;;0.00;0.00;;;26.00;65.90;;;;;;4188571;28;20043;-68
2022/08/05 01:59:13;;;;;;;0.00;0.00;;;26.00;65.90;;;;;;4191136;28;20052;-68
2022/08/05 02:01:38;;;;;;;0.00;0.00;;;26.00;65.90;;;;;;4190999;28;20060;-68
2022/08/05 02:04:02;;;;;;;0.00;0.00;;;26.00;65.90;;;;;;4179474;28;20060;-68
2022/08/05 02:06:25;;;;;;;0.00;0.00;;;26.00;65.90;;;;;;4177393;28;20049;-68
2022/08/05 02:08:55;;;;;;;0.00;0.00;;;26.00;65.90;;;;;;4191493;28;20503;-67
2022/08/05 02:11:20;;;;;;;0.00;0.00;;;26.00;66.00;;;;;;4176337;28;20060;-68
2022/08/05 02:13:52;;;;;;;0.00;0.00;;;26.00;66.20;;;;;;4175268;28;20052;-69
2022/08/05 02:16:22;;;;;;;0.00;0.00;;;26.00;66.20;;;;;;4175896;28;20183;-68
2022/08/05 02:18:50;;;;;;;0.10;0.10;;;26.00;67.20;;;;;;4175725;28;20064;-68
2022/08/05 02:21:15;;;;;;;0.00;0.00;;;26.00;66.30;;;;;;4192577;28;20112;-67
2022/08/05 02:23:40;;;;;;;0.00;0.00;;;26.00;66.30;;;;;;4184685;28;20110;-67
2022/08/05 02:26:06;;;;;;;0.20;0.20;;;26.00;66.30;;;;;;4175970;28;20052;-68
2022/08/05 02:28:34;;;;;;;0.00;0.00;;;26.00;66.20;;;;;;4175612;28;20468;-68
2022/08/05 02:31:02;;;;;;;0.00;0.00;;;26.00;66.20;;;;;;4177843;28;20420;-68
2022/08/05 02:33:26;;;;;;;0.00;0.00;;;26.00;66.30;;;;;;4184126;28;20533;-69
2022/08/05 02:35:59;;;;;;;0.00;0.00;;;26.00;66.30;;;;;;4177111;28;20040;-69
2022/08/05 02:38:23;;;;;;;0.00;0.00;;;26.00;66.30;;;;;;4191325;28;20490;-68
2022/08/05 02:40:46;;;;;;;0.00;0.00;;;25.90;66.10;;;;;;4190958;28;20051;-68
2022/08/05 02:43:12;;;;;;;0.45;0.45;;;25.90;66.20;;;;;;4172767;28;20438;-68
2022/08/05 02:45:36;;;;;;;0.00;0.00;;;25.90;66.30;;;;;;4192347;28;20491;-68
2022/08/05 02:48:16;;;;;;;0.00;0.00;;;25.90;66.20;;;;;;4175905;28;20139;-68
2022/08/05 02:50:40;;;;;;;0.00;0.00;;;25.90;66.20;;;;;;4175332;28;20122;-68
2022/08/05 02:53:06;;;;;;;0.00;0.00;;;25.90;66.30;;;;;;4168236;28;20055;-69
2022/08/05 02:55:33;;;;;;;0.00;0.00;;;25.90;67.20;;;;;;4175360;28;20191;-69
2022/08/05 02:58:15;;;;;;;1.38;0.57;;;25.90;66.40;;;;;;4173947;28;20045;-69
2022/08/05 03:00:38;;;;;;;0.00;0.00;;;25.90;66.30;;;;;;4191991;28;20165;-69
2022/08/05 03:03:01;;;;;;;0.00;0.00;;;25.90;66.30;;;;;;4183428;28;20048;-70
2022/08/05 03:05:24;;;;;;;0.00;0.00;;;25.90;66.30;;;;;;4174927;28;20049;-69
2022/08/05 03:08:09;;;;;;;1.45;1.35;;;25.90;66.30;;;;;;4175216;28;20491;-70
2022/08/05 03:10:31;;;;;;;0.10;0.10;;;25.90;66.30;;;;;;4175102;28;20052;-70
2022/08/05 03:12:53;;;;;;;0.10;0.10;;;25.90;66.30;;;;;;4174119;28;20106;-70
2022/08/05 03:15:16;;;;;;;0.00;0.00;;;25.90;66.30;;;;;;4174732;28;20646;-69
2022/08/05 03:17:38;;;;;;;0.00;0.00;;;25.90;66.40;;;;;;4191924;28;20051;-70
2022/08/05 03:20:00;;;;;;;0.00;0.00;;;25.90;66.30;;;;;;4191692;28;20067;-70
2022/08/05 03:22:22;;;;;;;0.10;0.10;;;25.90;66.30;;;;;;4188901;28;20423;-70
2022/08/05 03:24:55;;;;;;;0.00;0.00;;;25.90;66.30;;;;;;4175908;28;20099;-70
2022/08/05 03:27:17;;;;;;;0.00;0.00;;;25.90;66.40;;;;;;4175199;28;20094;-69
2022/08/05 03:29:40;;;;;;;0.00;0.00;;;25.90;66.40;;;;;;4175654;28;20052;-70
2022/08/05 03:32:06;;;;;;;0.00;0.00;;;25.90;66.40;;;;;;4179353;28;20554;-70
2022/08/05 03:34:30;;;;;;;0.00;0.00;;;25.90;66.40;;;;;;4192075;28;20051;-70
2022/08/05 03:36:52;;;;;;;0.00;0.00;;;25.90;66.40;;;;;;4191845;28;20102;-69
2022/08/05 03:39:14;;;;;;;0.20;0.20;;;25.90;66.30;;;;;;4191524;28;20047;-71
2022/08/05 03:41:42;;;;;;;0.25;0.25;;;25.90;66.40;;;;;;4159855;28;20142;-71
2022/08/05 03:44:06;;;;;;;0.10;0.10;;;25.90;66.30;;;;;;4191426;28;20140;-68
2022/08/05 03:46:31;;;;;;;0.45;0.45;;;25.90;66.30;;;;;;4192051;28;20045;-71
2022/08/05 03:48:53;;;;;;;0.00;0.00;;;25.90;66.40;;;;;;4191464;28;20045;-71
2022/08/05 03:51:20;;;;;;;0.00;0.00;;;25.80;66.30;;;;;;4176743;28;20095;-71
2022/08/05 03:54:08;;;;;;;0.00;0.00;;;25.80;66.20;;;;;;4175361;28;20051;-70
2022/08/05 03:56:52;;;;;;;0.00;0.00;;;25.80;66.30;;;;;;4158978;28;20412;-70
2022/08/05 03:59:17;;;;;;;0.00;0.00;;;25.80;66.30;;;;;;4174561;28;20377;-71
2022/08/05 04:01:46;;;;;;;0.00;0.00;;;25.80;66.40;;;;;;4179036;28;20433;-71
2022/08/05 04:04:10;;;;;;;0.00;0.00;;;25.80;66.30;;;;;;4172947;28;20056;-70
2022/08/05 04:06:33;;;;;;;0.00;0.00;;;25.80;66.30;;;;;;4174766;28;20199;-70
2022/08/05 04:08:56;;;;;;;0.00;0.00;;;25.80;66.40;;;;;;4174246;28;20055;-70
2022/08/05 04:11:19;;;;;;;0.00;0.00;;;25.80;66.40;;;;;;4172200;28;20052;-70
2022/08/05 04:13:44;;;;;;;0.57;0.57;;;25.80;66.40;;;;;;4158358;28;20115;-71
2022/08/05 04:16:13;;;;;;;0.00;0.00;;;25.80;66.40;;;;;;4158004;28;20084;-69
2022/08/05 04:18:36;;;;;;;0.03;0.03;;;25.80;66.40;;;;;;4178018;28;20565;-71
2022/08/05 04:20:58;;;;;;;0.00;0.00;;;25.70;66.30;;;;;;4192361;28;20462;-70
2022/08/05 04:23:22;;;;;;;1.13;1.02;;;25.80;66.40;;;;;;4192433;28;20098;-71
2022/08/05 04:26:05;;;;;;;0.00;0.00;;;25.80;66.40;;;;;;4176575;28;20049;-71
2022/08/05 04:28:27;;;;;;;0.08;0.08;;;25.80;66.40;;;;;;4176375;28;20033;-62
2022/08/05 04:30:53;;;;;;;0.00;0.00;;;25.80;66.50;;;;;;4191787;28;20053;-62
2022/08/05 04:33:16;;;;;;;0.00;0.00;;;25.70;66.40;;;;;;4193741;28;20047;-62
2022/08/05 04:35:38;;;;;;;0.00;0.00;;;25.70;66.40;;;;;;4177890;28;20461;-62
2022/08/05 04:38:20;;;;;;;0.00;0.00;;;25.70;66.40;;;;;;4176317;28;20496;-62
2022/08/05 04:40:43;;;;;;;0.00;0.00;;;25.70;66.50;;;;;;4176110;28;20052;-66
2022/08/05 04:43:09;;;;;;;1.67;0.98;;;25.70;66.50;;;;;;4177434;28;20111;-62
2022/08/05 04:45:32;;;;;;;0.00;0.00;;;25.70;66.50;;;;;;4160669;28;20123;-63
2022/08/05 04:48:12;;;;;;;0.00;0.00;;;25.70;66.50;;;;;;4174422;28;20098;-62
2022/08/05 04:50:42;;;;;;;0.00;0.00;;;25.70;66.50;;;;;;4193685;28;20388;-62
2022/08/05 04:53:23;;;;;;;0.00;0.00;;;25.70;66.60;;;;;;4178583;28;20045;-62
2022/08/05 04:55:46;;;;;;;0.00;0.00;;;25.60;66.50;;;;;;4177226;28;20060;-62
2022/08/05 04:58:28;;;;;;;0.15;0.15;;;25.70;66.70;;;;;;4193425;28;20049;-62
2022/08/05 05:00:50;;;;;;;0.00;0.00;;;25.60;66.50;;;;;;4193455;28;20052;-63
2022/08/05 05:03:13;;;;;;;0.15;0.15;;;25.70;66.70;;;;;;4179760;28;20100;-62
2022/08/05 05:05:36;;;;;;;0.00;0.00;;;25.60;66.60;;;;;;4177242;28;20122;-63
2022/08/05 05:08:18;;;;;;;0.00;0.00;;;25.60;66.60;;;;;;4176941;28;20052;-62
2022/08/05 05:10:48;;;;;;;0.00;0.00;;;25.60;66.60;;;;;;4178522;28;20048;-62
2022/08/05 05:13:18;;;;;;;0.00;0.00;;;25.60;66.70;;;;;;4176761;28;20855;-62
2022/08/05 05:15:43;;;;;;;0.00;0.00;;;25.60;67.10;;;;;;4160736;28;20140;-62
2022/08/05 05:18:17;;;;;;;0.00;0.00;;;25.60;67.10;;;;;;4175942;28;20064;-63
2022/08/05 05:20:49;;;;;;;0.00;0.00;;;25.70;67.10;;;;;;4176226;28;20033;-62
2022/08/05 05:23:12;;;;;;;0.00;0.00;;;25.70;67.10;;;;;;4182012;28;20045;-63
2022/08/05 05:25:41;;;;;;;0.10;0.10;;;25.70;67.10;;;;;;4176600;28;20045;-62
2022/08/05 05:28:04;;;;;;;0.00;0.00;;;25.70;67.20;;;;;;4182480;28;20143;-63
2022/08/05 05:30:26;;;;;;;0.00;0.00;;;25.70;67.10;;;;;;4160075;28;20057;-63
2022/08/05 05:32:51;;;;;;;0.00;0.00;;;25.70;67.30;;;;;;4172261;28;20107;-63
2022/08/05 05:35:15;;;;;;;0.00;0.00;;;25.60;67.10;;;;;;4192968;28;20055;-63
2022/08/05 05:37:47;;;;;;;1.73;0.52;;;25.60;67.20;;;;;;4188564;28;20059;-63
2022/08/05 05:40:22;;;;;;;0.10;0.10;;;25.60;67.30;;;;;;4193178;28;20056;-69
2022/08/05 05:42:47;;;;;;;0.00;0.00;;;25.60;67.30;;;;;;4192796;28;20056;-69
2022/08/05 05:45:10;;;;;;;2.35;0.45;;;25.60;67.30;;;;;;4191441;28;20048;-69
2022/08/05 05:47:31;;;;;;;0.00;0.00;;;25.70;67.40;;;;;;4192285;28;20371;-69
2022/08/05 05:50:17;;;;;;;0.00;0.00;;;25.60;67.30;;;;;;4176122;28;20039;-69
2022/08/05 05:52:41;;;;;;;0.10;0.10;;;25.60;67.30;;;;;;4179820;28;20058;-68
2022/08/05 05:55:05;;;;;;;0.00;0.00;;;25.60;67.30;;;;;;4177147;28;20155;-68
2022/08/05 05:57:28;;;;;;;0.00;0.00;;;25.60;67.30;;;;;;4191591;28;20055;-68
2022/08/05 06:00:05;;;;;;;0.20;0.20;;;25.60;67.10;;;;;;4189913;28;20131;-69
2022/08/05 06:02:33;;;;;;;0.30;0.30;;;25.60;67.10;;;;;;4175940;28;20114;-69
2022/08/05 06:04:57;;;;;;;0.10;0.10;;;25.60;67.10;;;;;;4180569;28;20059;-69
2022/08/05 06:07:20;;;;;;;4.18;1.25;;;25.60;67.10;;;;;;4192293;28;20059;-68
2022/08/05 06:09:43;;;;;;;0.00;0.00;;;25.60;66.90;;;;;;4192461;28;20106;-68
2022/08/05 06:12:13;;;;;;;0.40;0.40;;;25.60;66.80;;;;;;4192404;28;20044;-63
2022/08/05 06:14:36;;;;;;;0.05;0.05;;;25.60;66.80;;;;;;4191783;28;20062;-63
2022/08/05 06:16:58;;;;;;;1.80;1.10;;;25.60;66.70;;;;;;4177956;28;20113;-63
2022/08/05 06:19:20;;;;;;;0.00;0.00;;;25.60;66.70;;;;;;4188694;28;20127;-64
2022/08/05 06:21:47;;;;;;;0.00;0.00;;;25.60;66.70;;;;;;4192445;28;20553;-69
2022/08/05 06:24:11;;;;;;;0.25;0.25;;;25.60;66.70;;;;;;4175684;28;20049;-68
2022/08/05 06:26:35;;;;;;;0.00;0.00;;;25.60;66.50;;;;;;4176454;28;20060;-69
2022/08/05 06:28:57;;;;;;;0.00;0.00;;;25.60;66.40;;;;;;4178727;28;20049;-68
2022/08/05 06:31:19;;;;;;;0.00;0.00;;;25.60;66.50;;;;;;4190213;28;20123;-70
2022/08/05 06:33:43;;;;;;;0.20;0.20;;;25.60;66.40;;;;;;4175651;28;20049;-68
2022/08/05 06:36:25;;;;;;;0.00;0.00;;;25.60;66.20;;;;;;4175528;28;20049;-69
2022/08/05 06:38:49;;;;;;;0.00;0.00;;;25.60;66.10;;;;;;4175636;28;20076;-69
2022/08/05 06:41:12;;;;;;;0.00;0.00;;;25.60;66.10;;;;;;4174761;28;20059;-69
2022/08/05 06:43:34;;;;;;;0.00;0.00;;;25.60;66.10;;;;;;4189703;28;20044;-68
2022/08/05 06:46:13;;;;;;;0.00;0.00;;;25.60;66.90;;;;;;4191784;28;20052;-69
2022/08/05 06:48:35;;;;;;;0.00;0.00;;;25.60;65.90;;;;;;4192052;28;20055;-69
2022/08/05 06:51:14;;;;;;;0.28;0.28;;;25.60;65.90;;;;;;4188960;28;20040;-69
2022/08/05 06:53:44;;;;;;;0.00;0.00;;;25.70;65.80;;;;;;4175557;28;20053;-69
2022/08/05 06:56:16;;;;;;;0.08;0.08;;;25.70;65.50;;;;;;4175229;28;20052;-69
2022/08/05 06:58:47;;;;;;;0.00;0.00;;;25.80;65.50;;;;;;4175270;28;20053;-69
2022/08/05 07:01:09;;;;;;;0.00;0.00;;;25.80;65.20;;;;;;4176365;28;20098;-63
2022/08/05 07:03:32;;;;;;;0.00;0.00;;;25.80;65.10;;;;;;4175240;28;20114;-63
2022/08/05 07:05:54;;;;;;;0.77;0.77;;;25.90;64.80;;;;;;4175173;28;20049;-63
2022/08/05 07:08:16;;;;;;;0.00;0.00;;;25.90;64.40;;;;;;4191956;28;20055;-63
2022/08/05 07:10:39;;;;;;;0.00;0.00;;;25.90;64.40;;;;;;4190817;28;20041;-63
2022/08/05 07:18:46;;;;;;;0.00;0.00;;;26.10;63.10;;;;;;4188174;28;20135;-63
2022/08/05 07:21:09;;;;;;;0.10;0.10;;;26.10;63.10;;;;;;4188924;28;20052;-63
2022/08/05 07:23:31;;;;;;;0.10;0.10;;;26.00;63.10;;;;;;4189139;28;20083;-62
2022/08/05 07:25:53;;;;;;;0.00;0.00;;;26.10;62.50;;;;;;4188671;28;20044;-63
2022/08/05 07:28:19;;;;;;;0.00;0.00;;;26.10;61.90;;;;;;4168245;28;20049;-63
2022/08/05 07:30:41;;;;;;;0.00;0.00;;;26.10;62.50;;;;;;4187472;28;20101;-63
2022/08/05 07:33:05;;;;;;;0.00;0.00;;;26.10;62.70;;;;;;4188480;28;20055;-63
2022/08/05 07:35:30;;;;;;;0.13;0.13;;;26.10;62.60;;;;;;4188291;28;20048;-63
2022/08/05 07:38:00;;;;;;;0.00;0.00;;;26.10;62.70;;;;;;4188877;28;20052;-62
2022/08/05 07:40:22;;;;;;;0.00;0.00;;;26.10;62.60;;;;;;4188009;28;20106;-63
2022/08/05 07:42:47;;;;;;;0.00;0.00;;;26.10;62.50;;;;;;4189204;28;20048;-62
2022/08/05 07:45:11;;;;;;;0.08;0.08;;;26.10;63.50;;;;;;4189116;28;20643;-61
2022/08/05 07:47:33;;;;;;;0.00;0.00;;;26.10;62.40;;;;;;4186814;28;20044;-61
2022/08/05 07:50:03;;;;;;;0.00;0.00;;;26.10;62.40;;;;;;4187876;28;20114;-62
2022/08/05 07:52:27;;;;;;;0.00;0.00;;;26.10;62.30;;;;;;4190736;28;20052;-61
2022/08/05 07:54:49;;;;;;;0.00;0.00;;;26.10;62.30;;;;;;4191738;28;20849;-62
2022/08/05 07:57:11;;;;;;;0.00;0.00;;;26.10;62.50;;;;;;4191516;28;20076;-61
2022/08/05 07:59:36;;;;;;;0.38;0.38;;;26.10;62.50;;;;;;4190617;28;20133;-61
2022/08/05 08:02:03;;;;;;;0.00;0.00;;;26.10;62.50;;;;;;4191712;28;20044;-64
2022/08/05 08:04:25;;;;;;;1.08;0.73;;;26.00;62.20;;;;;;4191948;28;20055;-61
2022/08/05 08:07:00;;;;;;;0.00;0.00;;;26.10;62.10;;;;;;4191242;28;20079;-61
2022/08/05 08:09:23;;;;;;;0.93;0.90;;;26.10;61.90;;;;;;4191704;28;20054;-62
2022/08/05 08:11:44;;;;;;;0.22;0.22;;;26.10;61.90;;;;;;4192221;28;20496;-61
2022/08/05 08:14:09;;;;;;;1.35;1.25;;;26.20;61.90;;;;;;4190774;28;20080;-67
2022/08/05 08:16:31;;;;;;;0.13;0.13;;;26.20;61.60;;;;;;4191412;28;20483;-66
2022/08/05 08:18:58;;;;;;;0.00;0.00;;;26.20;61.40;;;;;;4192295;28;20098;-66
2022/08/05 08:21:20;;;;;;;0.00;0.00;;;26.20;61.10;;;;;;4190836;28;20060;-67
2022/08/05 08:23:42;;;;;;;0.00;0.00;;;26.30;60.90;;;;;;4188977;28;20064;-66
2022/08/05 08:26:24;;;;;;;0.47;0.47;;;26.30;60.90;;;;;;4191568;28;20040;-66
2022/08/05 08:28:48;;;;;;;0.00;0.00;;;26.30;60.60;;;;;;4189746;28;20491;-62
2022/08/05 08:31:21;;;;;;;0.00;0.00;;;26.40;60.60;;;;;;4190677;28;20044;-61
2022/08/05 08:33:42;;;;;;;0.00;0.00;;;26.40;60.30;;;;;;4190979;28;20048;-61
2022/08/05 08:36:07;;;;;;;0.00;0.00;;;26.40;59.80;;;;;;4191706;28;20497;-62
2022/08/05 08:38:49;;;;;;;0.00;0.00;;;26.40;59.70;;;;;;4176278;28;20049;-61
2022/08/05 08:41:15;;;;;;;0.00;0.00;;;26.40;58.80;;;;;;4191190;28;20050;-61
2022/08/05 08:43:38;;;;;;;5.22;2.22;;;26.40;58.90;;;;;;4191681;28;20438;-62
2022/08/05 08:46:21;;;;;;;0.00;0.00;;;26.40;59.00;;;;;;4174592;28;20053;-61
2022/08/05 08:48:46;;;;;;;0.00;0.00;;;26.40;59.00;;;;;;4169735;28;20049;-62
2022/08/05 08:51:31;;;;;;;0.30;0.30;;;26.40;58.90;;;;;;4162973;28;20060;-61
2022/08/05 08:54:14;;;;;;;0.45;0.45;;;26.30;58.50;;;;;;4191189;28;20051;-61
2022/08/05 08:56:38;;;;;;;0.00;0.00;;;26.30;58.70;;;;;;4190297;28;20161;-62
2022/08/05 08:59:01;;;;;;;0.00;0.00;;;26.30;58.70;;;;;;4191378;28;20139;-61
2022/08/05 09:01:26;;;;;;;0.00;0.00;;;26.30;58.70;;;;;;4189357;28;20040;-61
2022/08/05 09:03:51;;;;;;;0.10;0.10;;;26.30;58.40;;;;;;4189705;28;20389;-61
2022/08/05 09:06:13;;;;;;;0.00;0.00;;;26.30;58.80;;;;;;4190789;28;20135;-61
2022/08/05 09:08:42;;;;;;;0.00;0.00;;;26.20;58.10;;;;;;4190577;28;20084;-62
2022/08/05 09:11:05;;;;;;;0.00;0.00;;;26.20;58.00;;;;;;4191363;28;20051;-61
2022/08/05 09:13:28;;;;;;;0.00;0.00;;;26.20;57.80;;;;;;4190848;28;20113;-61
2022/08/05 09:15:52;;;;;;;0.70;0.70;;;26.20;57.80;;;;;;4188686;28;20067;-61
2022/08/05 09:18:15;;;;;;;0.00;0.00;;;26.20;57.90;;;;;;4189987;28;20056;-61
2022/08/05 09:20:40;;;;;;;0.00;0.00;;;26.20;57.90;;;;;;4191287;27;20053;-61
2022/08/05 09:23:10;;;;;;;0.00;0.00;;;26.20;58.20;;;;;;4190002;28;20064;-61
2022/08/05 09:25:44;;;;;;;0.00;0.00;;;26.20;58.20;;;;;;4191119;28;20455;-61
2022/08/05 09:28:23;;;;;;;0.00;0.00;;;26.20;58.00;;;;;;4173913;28;20130;-62
2022/08/05 09:30:54;;;;;;;0.57;0.57;;;26.20;57.80;;;;;;4189945;28;20052;-67
2022/08/05 09:33:16;;;;;;;;;;;26.20;57.90;;;;;;4190559;28;20052;-67
2022/08/05 09:35:52;;;;;;;0.00;0.00;;;26.20;58.10;;;;;;4189332;28;19925;-67
2022/08/05 09:38:16;;;;;;;0.00;0.00;;;26.20;58.10;;;;;;4188568;28;20055;-68
2022/08/05 09:40:49;;;;;;;0.00;0.00;;;26.20;59.00;;;;;;4190270;28;20054;-67
2022/08/05 09:43:27;;;;;;;0.00;0.00;;;26.20;58.10;;;;;;4189557;27;20071;-66
2022/08/05 09:46:03;;;;;;;0.00;0.00;;;26.20;57.70;;;;;;4190736;28;20059;-67
2022/08/05 09:48:30;;;;;;;0.00;0.00;;;26.20;57.60;;;;;;4188882;28;20055;-67
2022/08/05 09:50:54;;;;;;;0.00;0.00;;;26.20;57.40;;;;;;4190410;28;20372;-67
2022/08/05 09:53:16;;;;;;;0.00;0.00;;;26.20;57.20;;;;;;4187935;27;20071;-67
2022/08/05 09:55:44;;;;;;;0.20;0.20;;;26.30;57.10;;;;;;4188796;28;20052;-67
2022/08/05 09:58:19;;;;;;;0.00;0.00;;;26.30;57.50;;;;;;4172987;28;20060;-67
2022/08/05 10:00:53;;;;;;;0.22;0.15;;;26.30;57.10;;;;;;4167705;28;20103;-67
2022/08/05 10:03:15;;;;;;;0.00;0.00;;;26.30;56.20;;;;;;4171575;28;20051;-67
2022/08/05 10:05:40;;;;;;;0.00;0.00;;;26.40;56.10;;;;;;4174145;28;20201;-67
2022/08/05 10:08:04;;;;;;;0.00;0.00;;;26.40;55.70;;;;;;4189925;28;20207;-67
2022/08/05 10:10:38;;;;;;;0.10;0.10;;;26.40;55.60;;;;;;4188916;28;20051;-67
2022/08/05 10:13:01;;;;;;;0.00;0.00;;;26.40;55.50;;;;;;4189625;28;20084;-62
2022/08/05 10:15:27;;;;;;;0.00;0.00;;;26.40;55.30;;;;;;4189713;28;20106;-61
2022/08/05 10:18:13;;;;;;;0.00;0.00;;;26.50;55.20;;;;;;4189948;27;20082;-61
2022/08/05 10:20:41;;;;;;;0.00;0.00;;;26.50;54.90;;;;;;4182489;28;20109;-67
2022/08/05 10:23:04;;;;;;;0.00;0.00;;;26.50;54.50;;;;;;4189051;28;20063;-68
2022/08/05 10:25:26;;;;;;;0.00;0.00;;;26.50;54.20;;;;;;4190061;28;20121;-68
2022/08/05 10:27:49;;;;;;;0.13;0.13;;;26.50;54.00;;;;;;4188275;28;20195;-66
2022/08/05 10:30:33;;;;;;;0.15;0.15;;;26.50;53.20;;;;;;4189758;28;20040;-69
2022/08/05 10:33:04;;;;;;;0.00;0.00;;;26.50;53.80;;;;;;4189378;28;20163;-68
2022/08/05 10:35:26;;;;;;;0.00;0.00;;;26.60;54.10;;;;;;4188137;28;20126;-68
2022/08/05 10:37:55;;;;;;;0.00;0.00;;;26.50;53.70;;;;;;4189871;28;20137;-69
2022/08/05 10:40:25;;;;;;;0.00;0.00;;;26.50;53.20;;;;;;4189210;28;20063;-67
2022/08/05 10:42:54;;;;;;;0.00;0.00;;;26.50;52.70;;;;;;4189544;28;20074;-68
2022/08/05 10:45:17;;;;;;;0.00;0.00;;;26.60;53.00;;;;;;4188424;28;20044;-68
2022/08/05 10:47:45;;;;;;;0.10;0.10;;;26.60;52.00;;;;;;4189170;28;20060;-67
2022/08/05 10:50:12;;;;;;;0.00;0.00;;;26.60;52.60;;;;;;4189731;28;21030;-67
2022/08/05 10:52:55;;;;;;;0.00;0.00;;;26.60;52.80;;;;;;4189502;28;20148;-67
2022/08/05 10:55:20;;;;;;;0.00;0.00;;;26.60;53.50;;;;;;4189103;28;20399;-67
2022/08/05 10:57:43;;;;;;;0.00;0.00;;;26.60;52.20;;;;;;4189206;28;20040;-68
2022/08/05 11:00:15;;;;;;;0.00;0.00;;;26.60;51.10;;;;;;4189703;28;20052;-67
2022/08/05 11:03:13;;;;;;;0.00;0.00;;;26.60;51.70;;;;;;4189375;28;20045;-67
2022/08/05 11:06:06;;;;;;;0.00;0.00;;;26.60;52.00;;;;;;4187544;28;20082;-68
2022/08/05 11:08:29;;;;;;;0.00;0.00;;;26.60;51.40;;;;;;4188154;28;20151;-68
2022/08/05 11:11:14;;;;;;;;;;;26.60;51.80;;;;;;4189878;28;20056;-67
2022/08/05 11:13:43;;;;;;;0.00;0.00;;;26.60;51.80;;;;;;4188028;28;19925;-68
2022/08/05 11:16:22;;;;;;;0.00;0.00;;;26.50;51.40;;;;;;4187743;28;20126;-68
2022/08/05 11:19:28;;;;;;;0.00;0.00;;;26.60;50.90;;;;;;4189480;28;20044;-67
2022/08/05 11:22:37;;;;;;;0.00;0.00;;;26.60;50.70;;;;;;4188943;28;20546;-67
2022/08/05 11:25:31;;;;;;;0.00;0.00;;;26.50;50.80;;;;;;4188154;28;20059;-68
2022/08/05 11:28:41;;;;;;;0.00;0.00;;;26.60;51.00;;;;;;4191881;28;20047;-68
2022/08/05 11:31:31;;;;;;;0.00;0.00;;;26.50;50.10;;;;;;4192447;28;20463;-68
2022/08/05 11:34:13;;;;;;;0.00;0.00;;;26.50;50.20;;;;;;4192347;28;20049;-68
2022/08/05 11:36:51;;;;;;;0.00;0.00;;;26.60;50.30;;;;;;4191719;28;20126;-68
2022/08/05 11:39:17;;;;;;;0.00;0.00;;;26.60;50.10;;;;;;4192064;28;20056;-65
2022/08/05 11:41:40;;;;;;;0.00;0.00;;;26.60;49.70;;;;;;4192017;28;20056;-66
2022/08/05 11:44:21;;;;;;;0.00;0.00;;;26.60;49.10;;;;;;4191652;28;20876;-66
2022/08/05 11:47:02;;;;;;;0.00;0.00;;;26.60;49.00;;;;;;4192005;28;20513;-70
2022/08/05 11:49:33;;;;;;;1.08;1.00;;;26.60;48.90;;;;;;4192230;28;20055;-69
2022/08/05 11:51:56;;;;;;;0.05;0.05;;;26.60;48.30;;;;;;4192217;28;20044;-68
2022/08/05 11:54:25;;;;;;;0.00;0.00;;;26.60;47.80;;;;;;4191810;27;20075;-68
2022/08/05 11:56:55;;;;;;;0.00;0.00;;;26.60;47.40;;;;;;4190733;28;20056;-70
2022/08/05 11:59:18;;;;;;;0.00;0.00;;;26.60;47.00;;;;;;4190049;27;20450;-68
2022/08/05 12:01:54;;;;;;;0.00;0.00;;;26.60;47.30;;;;;;4166234;28;20129;-69
2022/08/05 12:04:16;;;;;;;0.00;0.00;;;26.60;47.60;;;;;;4190928;28;20513;-70
2022/08/05 12:06:38;;;;;;;0.00;0.00;;;26.60;47.30;;;;;;4190311;28;20044;-69
2022/08/05 12:09:04;;;;;;;0.00;0.00;;;26.60;46.90;;;;;;4165371;28;20403;-71
2022/08/05 12:11:28;;;;;;;0.30;0.30;;;26.60;46.00;;;;;;4191163;28;20047;-68
2022/08/05 12:14:02;;;;;;;0.00;0.00;;;26.60;47.00;;;;;;4190723;28;20060;-69
2022/08/05 12:16:26;;;;;;;0.80;0.80;;;26.60;47.40;;;;;;4191858;28;20056;-68
2022/08/05 12:18:48;;;;;;;0.00;0.00;;;26.50;48.00;;;;;;4192090;28;20041;-69
2022/08/05 12:21:16;;;;;;;0.00;0.00;;;26.50;48.20;;;;;;4190094;28;20121;-70
2022/08/05 12:23:39;;;;;;;0.00;0.00;;;26.50;48.60;;;;;;4191828;27;20053;-69
2022/08/05 12:26:06;;;;;;;0.00;0.00;;;26.50;47.90;;;;;;4191287;28;20052;-63
2022/08/05 12:28:33;;;;;;;0.00;0.00;;;26.50;48.20;;;;;;4191131;28;20056;-63
2022/08/05 12:30:56;;;;;;;0.00;0.00;;;26.50;48.90;;;;;;4191021;28;20057;-62
2022/08/05 12:33:18;;;;;;;0.00;0.00;;;26.50;48.80;;;;;;4191547;28;20692;-62
2022/08/05 12:35:48;;;;;;;0.00;0.00;;;26.50;48.70;;;;;;4191108;28;20560;-62
2022/08/05 12:38:11;;;;;;;0.00;0.00;;;26.40;49.60;;;;;;4187628;28;20060;-62
2022/08/05 12:40:35;;;;;;;0.00;0.00;;;26.40;49.30;;;;;;4191273;28;20052;-62
2022/08/05 12:42:58;;;;;;;0.00;0.00;;;26.40;48.70;;;;;;4191062;28;20139;-63
2022/08/05 12:45:21;;;;;;;0.00;0.00;;;26.40;48.30;;;;;;4190152;28;20135;-62
2022/08/05 12:47:43;;;;;;;0.38;0.38;;;26.40;48.20;;;;;;4191179;28;20120;-63
2022/08/05 12:50:23;;;;;;;0.00;0.00;;;26.40;48.90;;;;;;4191395;28;20537;-62
2022/08/05 12:52:55;;;;;;;0.00;0.00;;;26.30;49.20;;;;;;4190802;28;20446;-63
2022/08/05 12:55:19;;;;;;;0.00;0.00;;;26.30;49.30;;;;;;4191007;28;20121;-62
2022/08/05 12:57:44;;;;;;;0.00;0.00;;;26.30;49.10;;;;;;4191177;28;20062;-61